Time;durP1;ratioP1;P1;durP2;ratioP2;P2;SDS_P1;SDS_P2;PMS_P1;PMS_P2;Temp;Humidity;BMP_temperature;BMP_pressure;BME280_temperature;BME280_humidity;BME280_pressure;Samples;Min_cycle;Max_cycle;Signal;HPM_P1;HPM_P2
2024/04/11 00:04:49;;;;;;;;;;;;;;;20.91;37.27;97055.31;11241951;26;3136;-66
2024/04/11 00:09:49;;;;;;;;;;;;;;;20.91;37.27;97050.03;11235636;26;3333;-66
2024/04/11 00:14:49;;;;;;;;;;;;;;;20.91;37.29;97050.03;11242158;26;3187;-66
2024/04/11 00:19:50;;;;;;;;;;;;;;;20.90;37.56;97045.78;11231194;26;2834;-66
2024/04/11 00:24:50;;;;;;;;;;;;;;;20.89;37.15;97046.84;11227925;26;2894;-66
2024/04/11 00:29:51;;;;;;;;;;;;;;;20.89;37.26;97044.19;11231191;26;2933;-66
2024/04/11 00:34:53;;;;;;;;;;;;;;;20.87;37.22;97038.38;11240731;26;2965;-66
2024/04/11 00:39:53;;;;;;;;;;;;;;;20.86;37.82;97034.13;11213651;26;2918;-66
2024/04/11 00:44:54;;;;;;;;;;;;;;;20.86;37.39;97034.13;11220697;26;2979;-66
2024/04/11 00:49:55;;;;;;;;;;;;;;;20.85;37.69;97032.56;11230931;26;3094;-66
2024/04/11 00:54:56;;;;;;;;;;;;;;;20.82;37.32;97022.50;11235501;26;3108;-66
2024/04/11 00:59:56;;;;;;;;;;;;;;;20.84;37.34;97028.31;11231216;26;2839;-66
2024/04/11 01:04:59;;;;;;;;;;;;;;;20.83;37.26;97034.63;11233519;26;3136;-66
2024/04/11 01:10:00;;;;;;;;;;;;;;;20.83;37.67;97029.38;11241150;26;2866;-66
2024/04/11 01:15:02;;;;;;;;;;;;;;;20.82;37.52;97022.50;11233697;26;2941;-66
2024/04/11 01:20:04;;;;;;;;;;;;;;;20.81;37.28;97036.69;11231143;26;3223;-66
2024/04/11 01:25:08;;;;;;;;;;;;;;;20.82;37.68;97042.78;11213744;26;3255;-65
2024/04/11 01:30:08;;;;;;;;;;;;;;;20.80;37.57;97040.38;11239532;26;3087;-65
2024/04/11 01:35:09;;;;;;;;;;;;;;;20.81;37.50;97035.91;11211457;26;2965;-67
2024/04/11 01:40:09;;;;;;;;;;;;;;;20.79;37.64;97041.41;11232577;26;2975;-65
2024/04/11 01:45:10;;;;;;;;;;;;;;;20.78;37.80;97039.84;11228460;26;3084;-65
2024/04/11 01:50:11;;;;;;;;;;;;;;;20.78;37.82;97044.28;11246857;26;3145;-66
2024/04/11 01:55:11;;;;;;;;;;;;;;;20.77;37.46;97038.22;11276365;26;3011;-66
2024/04/11 02:00:14;;;;;;;;;;;;;;;20.77;37.52;97046.13;11214752;26;3295;-66
2024/04/11 02:05:15;;;;;;;;;;;;;;;20.77;37.14;97032.19;11245208;26;3159;-64
2024/04/11 02:10:15;;;;;;;;;;;;;;;20.76;37.71;97026.09;11212223;26;3096;-64
2024/04/11 02:15:15;;;;;;;;;;;;;;;20.74;37.16;97020.28;11238793;26;3217;-64
2024/04/11 02:20:16;;;;;;;;;;;;;;;20.73;37.39;97012.63;11210140;26;3111;-64
2024/04/11 02:25:17;;;;;;;;;;;;;;;20.73;37.29;97012.63;11245391;26;3089;-64
2024/04/11 02:30:17;;;;;;;;;;;;;;;20.72;37.35;97011.81;11270606;26;3093;-64
2024/04/11 02:35:18;;;;;;;;;;;;;;;20.72;37.43;97014.47;11209547;26;2983;-64
2024/04/11 02:40:18;;;;;;;;;;;;;;;20.71;37.37;97014.72;11243974;26;3167;-64
2024/04/11 02:45:18;;;;;;;;;;;;;;;20.71;37.45;97015.47;11235942;26;3023;-64
2024/04/11 02:50:23;;;;;;;;;;;;;;;20.71;36.94;97022.63;11241748;26;3129;-64
2024/04/11 02:55:23;;;;;;;;;;;;;;;20.70;37.24;97018.38;11248516;26;3202;-64
2024/04/11 03:00:23;;;;;;;;;;;;;;;20.71;37.16;97019.97;11202547;26;3186;-64
2024/04/11 03:05:25;;;;;;;;;;;;;;;20.69;36.99;97020.19;11245847;26;2845;-64
2024/04/11 03:10:26;;;;;;;;;;;;;;;20.68;37.42;97013.34;11235192;26;3031;-65
2024/04/11 03:15:28;;;;;;;;;;;;;;;20.68;37.42;97004.63;11234625;26;3109;-65
2024/04/11 03:20:28;;;;;;;;;;;;;;;20.67;37.19;97009.09;11210820;26;3116;-65
2024/04/11 03:25:30;;;;;;;;;;;;;;;20.67;37.04;97003.06;11240534;26;2913;-65
2024/04/11 03:30:31;;;;;;;;;;;;;;;20.66;36.91;97007.53;11237297;26;3093;-65
2024/04/11 03:35:32;;;;;;;;;;;;;;;20.66;36.81;97004.91;11236389;26;2974;-65
2024/04/11 03:40:33;;;;;;;;;;;;;;;20.64;37.04;96996.44;11215147;26;3105;-65
2024/04/11 03:45:34;;;;;;;;;;;;;;;20.64;37.27;97000.91;11274349;26;3323;-65
2024/04/11 03:50:35;;;;;;;;;;;;;;;20.63;36.87;97002.72;11216420;26;2821;-65
2024/04/11 03:55:42;;;;;;;;;;;;;;;20.63;36.75;96997.47;11243741;26;3009;-65
2024/04/11 04:00:46;;;;;;;;;;;;;;;20.62;36.69;97016.97;11174702;26;3130;-65
2024/04/11 04:05:46;;;;;;;;;;;;;;;20.62;36.92;97011.69;11234656;26;3051;-65
2024/04/11 04:10:46;;;;;;;;;;;;;;;20.61;37.19;97010.09;11228307;26;3093;-65
2024/04/11 04:15:46;;;;;;;;;;;;;;;20.61;37.08;97020.63;11241809;26;3045;-66
2024/04/11 04:20:53;;;;;;;;;;;;;;;20.60;36.80;97015.59;11233837;26;2992;-65
2024/04/11 04:26:07;;;;;;;;;;;;;;;20.59;37.03;97016.63;11239453;26;2894;-65
2024/04/11 04:31:12;;;;;;;;;;;;;;;20.59;36.53;97024.53;11226219;26;3097;-65
2024/04/11 04:36:16;;;;;;;;;;;;;;;20.59;36.79;97024.53;11234864;26;2950;-64
2024/04/11 04:41:19;;;;;;;;;;;;;;;20.59;36.99;97032.44;11221388;26;3229;-64
2024/04/11 04:46:21;;;;;;;;;;;;;;;20.58;36.79;97030.84;11236949;26;2486;-65
2024/04/11 04:51:21;;;;;;;;;;;;;;;20.56;36.87;97039.00;11201305;26;3005;-65
2024/04/11 04:56:22;;;;;;;;;;;;;;;20.56;36.80;97046.91;11219403;26;2913;-65
2024/04/11 05:01:23;;;;;;;;;;;;;;;20.56;36.81;97044.28;11234738;26;3038;-62
2024/04/11 05:06:24;;;;;;;;;;;;;;;20.55;36.59;97052.41;11237338;26;3242;-61
2024/04/11 05:11:31;;;;;;;;;;;;;;;20.55;36.69;97045.31;11234549;26;2995;-61
2024/04/11 05:16:31;;;;;;;;;;;;;;;20.54;36.98;97046.34;11266231;26;3142;-63
2024/04/11 05:21:32;;;;;;;;;;;;;;;20.55;36.27;97058.47;11229244;26;2913;-62
2024/04/11 05:26:32;;;;;;;;;;;;;;;20.55;36.91;97058.47;11227948;26;3126;-62
2024/04/11 05:31:34;;;;;;;;;;;;;;;20.54;36.82;97062.16;11236381;26;2974;-61
2024/04/11 05:36:35;;;;;;;;;;;;;;;20.54;36.72;97072.69;11239518;26;3175;-62
2024/04/11 05:41:35;;;;;;;;;;;;;;;20.53;36.76;97057.13;11227581;26;3086;-62
2024/04/11 05:46:36;;;;;;;;;;;;;;;20.54;36.56;97062.16;11237225;26;2895;-62
2024/04/11 05:51:36;;;;;;;;;;;;;;;20.53;36.57;97076.34;11205409;26;3083;-62
2024/04/11 05:56:37;;;;;;;;;;;;;;;20.53;36.45;97084.25;11230772;26;3085;-62
2024/04/11 06:01:37;;;;;;;;;;;;;;;20.54;36.24;97091.13;11233184;26;3218;-62
2024/04/11 06:06:38;;;;;;;;;;;;;;;20.55;36.73;97097.19;11235431;26;2935;-63
2024/04/11 06:11:40;;;;;;;;;;;;;;;20.54;36.62;97103.50;11237798;26;3112;-60
2024/04/11 06:16:40;;;;;;;;;;;;;;;20.53;37.23;97097.44;11246316;26;3148;-61
2024/04/11 06:21:45;;;;;;;;;;;;;;;20.54;36.98;97106.94;11244489;26;3131;-61
2024/04/11 06:26:45;;;;;;;;;;;;;;;20.54;36.63;97119.31;11241390;26;3055;-61
2024/04/11 06:31:46;;;;;;;;;;;;;;;20.53;36.81;97107.97;11228010;26;2910;-63
2024/04/11 06:36:49;;;;;;;;;;;;;;;20.54;37.08;97111.41;11229680;26;3214;-63
2024/04/11 06:41:49;;;;;;;;;;;;;;;20.53;36.97;97123.78;11240911;26;2920;-62
2024/04/11 06:46:49;;;;;;;;;;;;;;;20.53;36.67;97110.59;11235399;26;2815;-62
2024/04/11 06:51:50;;;;;;;;;;;;;;;20.54;36.95;97112.22;11214043;26;3088;-63
2024/04/11 06:56:52;;;;;;;;;;;;;;;20.54;36.68;97121.94;11230613;26;3092;-63
2024/04/11 07:01:53;;;;;;;;;;;;;;;20.52;36.98;97127.47;11240711;26;3027;-62
2024/04/11 07:06:55;;;;;;;;;;;;;;;20.53;36.71;97129.03;11230369;26;3194;-62
2024/04/11 07:11:56;;;;;;;;;;;;;;;20.55;36.83;97134.06;11230786;26;2930;-62
2024/04/11 07:16:56;;;;;;;;;;;;;;;20.53;37.36;97128.22;11230848;26;3047;-62
2024/04/11 07:21:57;;;;;;;;;;;;;;;20.53;36.74;97129.03;11229831;26;3086;-62
2024/04/11 07:26:57;;;;;;;;;;;;;;;20.53;37.33;97131.69;11197449;26;3106;-62
2024/04/11 07:31:57;;;;;;;;;;;;;;;20.52;36.98;97138.00;11211842;26;3068;-62
2024/04/11 07:36:57;;;;;;;;;;;;;;;20.53;37.11;97147.47;11227911;26;2613;-62
2024/04/11 07:42:18;;;;;;;;;;;;;;;20.52;36.70;97142.47;11205109;26;3047;-62
2024/04/11 07:47:21;;;;;;;;;;;;;;;20.52;37.06;97153.81;11236662;26;3351;-63
2024/04/11 07:52:22;;;;;;;;;;;;;;;20.51;36.88;97157.47;11227727;26;2880;-63
2024/04/11 07:57:22;;;;;;;;;;;;;;;20.52;37.09;97156.44;11226027;26;2838;-62
2024/04/11 08:02:23;;;;;;;;;;;;;;;20.52;37.13;97150.38;11207331;26;3037;-62
2024/04/11 08:07:23;;;;;;;;;;;;;;;20.53;37.42;97150.13;11227660;26;2983;-63
2024/04/11 08:12:24;;;;;;;;;;;;;;;20.53;37.38;97160.66;11226335;26;2909;-63
2024/04/11 08:17:25;;;;;;;;;;;;;;;20.54;37.20;97172.81;11201801;26;3008;-63
2024/04/11 08:22:28;;;;;;;;;;;;;;;20.52;37.49;97166.97;11207404;26;3080;-62
2024/04/11 08:27:28;;;;;;;;;;;;;;;20.54;37.37;97172.00;11227774;26;2652;-62
2024/04/11 08:32:28;;;;;;;;;;;;;;;20.53;37.48;97173.81;11229901;26;3133;-62
2024/04/11 08:37:28;;;;;;;;;;;;;;;20.53;37.62;97163.28;11232195;26;3212;-62
2024/04/11 08:42:29;;;;;;;;;;;;;;;20.53;37.49;97165.91;11220841;26;3011;-62
2024/04/11 08:47:29;;;;;;;;;;;;;;;20.53;37.76;97168.56;11226885;26;3193;-62
2024/04/11 08:52:30;;;;;;;;;;;;;;;20.54;37.41;97166.72;11233196;26;3106;-63
2024/04/11 08:57:30;;;;;;;;;;;;;;;20.53;37.78;97173.81;11196537;26;3079;-62
2024/04/11 09:02:30;;;;;;;;;;;;;;;20.55;37.97;97176.22;11196917;26;3162;-62
2024/04/11 09:07:32;;;;;;;;;;;;;;;20.54;37.46;97175.44;11204665;26;2933;-62
2024/04/11 09:12:32;;;;;;;;;;;;;;;20.54;37.62;97179.91;11220571;26;2961;-64
2024/04/11 09:17:39;;;;;;;;;;;;;;;20.55;37.39;97182.28;11203413;26;3321;-63
2024/04/11 09:22:50;;;;;;;;;;;;;;;20.55;37.83;97184.91;11229818;26;3121;-63
2024/04/11 09:27:54;;;;;;;;;;;;;;;20.56;37.53;97191.81;11229055;26;3152;-63
2024/04/11 09:32:56;;;;;;;;;;;;;;;20.56;37.83;97186.53;11222157;26;3222;-63
2024/04/11 09:37:59;;;;;;;;;;;;;;;20.56;37.82;97197.06;11221107;26;2923;-63
2024/04/11 09:43:04;;;;;;;;;;;;;;;20.57;38.23;97196.00;11224612;26;3032;-63
2024/04/11 09:48:04;;;;;;;;;;;;;;;20.57;37.72;97209.19;11236729;26;3077;-63
2024/04/11 09:53:04;;;;;;;;;;;;;;;20.57;38.03;97193.38;11235223;26;3038;-63
2024/04/11 09:58:05;;;;;;;;;;;;;;;20.56;37.90;97183.91;11202820;26;3522;-63
2024/04/11 10:03:05;;;;;;;;;;;;;;;20.57;38.25;97179.41;11215808;26;2997;-63
2024/04/11 10:08:16;;;;;;;;;;;;;;;20.57;38.19;97177.56;11226226;26;2955;-62
2024/04/11 10:13:20;;;;;;;;;;;;;;;20.57;38.07;97182.84;11246275;26;3088;-63
2024/04/11 10:18:31;;;;;;;;;;;;;;;20.57;37.79;97187.31;11212538;26;3005;-63
2024/04/11 10:23:37;;;;;;;;;;;;;;;20.57;37.95;97187.31;11236791;26;3089;-63
2024/04/11 10:28:51;;;;;;;;;;;;;;;20.56;38.25;97186.53;11207473;26;3306;-64
2024/04/11 10:34:03;;;;;;;;;;;;;;;20.57;37.96;97182.03;11233014;26;2971;-63
2024/04/11 10:39:08;;;;;;;;;;;;;;;20.57;38.36;97188.13;11212047;26;3265;-63
2024/04/11 10:44:08;;;;;;;;;;;;;;;20.56;37.84;97180.47;11227448;26;3070;-63
2024/04/11 10:49:12;;;;;;;;;;;;;;;20.56;37.90;97185.72;11237615;26;2989;-61
2024/04/11 10:54:12;;;;;;;;;;;;;;;20.57;37.94;97187.31;11231011;26;2945;-62
2024/04/11 10:59:22;;;;;;;;;;;;;;;20.57;37.93;97188.13;11230090;26;3093;-62
2024/04/11 11:04:25;;;;;;;;;;;;;;;20.57;38.16;97193.38;11229582;26;2990;-62
2024/04/11 11:09:28;;;;;;;;;;;;;;;20.57;38.01;97193.38;11233582;26;3105;-63
2024/04/11 11:14:29;;;;;;;;;;;;;;;20.56;38.00;97197.06;11226796;26;2929;-63
2024/04/11 11:19:30;;;;;;;;;;;;;;;20.58;38.11;97191.56;11243592;26;3085;-63
2024/04/11 11:24:30;;;;;;;;;;;;;;;20.56;38.53;97191.81;11232729;26;3094;-63
2024/04/11 11:29:30;;;;;;;;;;;;;;;20.56;38.19;97183.09;11228897;26;3193;-63
2024/04/11 11:34:31;;;;;;;;;;;;;;;20.56;38.69;97185.72;11228653;26;3248;-63
2024/04/11 11:39:36;;;;;;;;;;;;;;;20.56;38.03;97180.47;11240339;26;3189;-63
2024/04/11 11:45:05;;;;;;;;;;;;;;;20.55;38.09;97181.47;11228456;26;3194;-63
2024/04/11 11:50:09;;;;;;;;;;;;;;;20.56;38.27;97175.19;11231882;26;2530;-63
2024/04/11 11:55:16;;;;;;;;;;;;;;;20.54;38.32;97172.81;11202950;26;2990;-63
2024/04/11 12:00:21;;;;;;;;;;;;;;;20.54;38.48;97175.44;11231526;26;3191;-63
2024/04/11 12:05:24;;;;;;;;;;;;;;;20.53;38.53;97170.38;11226112;26;3081;-63
2024/04/11 12:10:29;;;;;;;;;;;;;;;20.54;38.16;97170.16;11253335;26;3062;-63
2024/04/11 12:15:29;;;;;;;;;;;;;;;20.53;38.18;97171.19;11230510;26;2818;-64
2024/04/11 12:20:31;;;;;;;;;;;;;;;20.53;38.47;97173.03;11220861;26;3137;-64
2024/04/11 12:25:31;;;;;;;;;;;;;;;20.52;38.51;97169.59;11229261;26;3208;-64
2024/04/11 12:30:33;;;;;;;;;;;;;;;20.53;38.38;97165.13;11198056;26;2965;-64
2024/04/11 12:35:45;;;;;;;;;;;;;;;20.54;38.27;97162.25;11231194;26;3210;-64
2024/04/11 12:40:48;;;;;;;;;;;;;;;20.55;38.62;97157.78;11225911;26;2998;-64
2024/04/11 12:45:52;;;;;;;;;;;;;;;20.55;38.29;97157.78;11246636;26;3245;-64
2024/04/11 12:50:54;;;;;;;;;;;;;;;20.56;38.17;97154.91;11220500;26;3107;-66
2024/04/11 12:55:58;;;;;;;;;;;;;;;20.55;38.26;97152.50;11231740;26;2954;-63
2024/04/11 13:01:02;;;;;;;;;;;;;;;20.56;38.56;97154.13;11231542;26;3033;-63
2024/04/11 13:06:07;;;;;;;;;;;;;;;20.55;38.49;97150.69;11197862;26;3089;-63
2024/04/11 13:11:09;;;;;;;;;;;;;;;20.56;38.51;97139.13;11236082;26;2960;-63
2024/04/11 13:16:12;;;;;;;;;;;;;;;20.55;38.91;97137.50;11190796;26;3157;-63
2024/04/11 13:21:30;;;;;;;;;;;;;;;20.56;38.68;97136.47;11231394;26;2985;-63
2024/04/11 13:26:35;;;;;;;;;;;;;;;20.57;38.26;97127.53;11225475;26;3150;-63
2024/04/11 13:31:42;;;;;;;;;;;;;;;20.57;38.74;97132.78;11223349;26;3101;-63
2024/04/11 13:36:45;;;;;;;;;;;;;;;20.59;38.52;97129.91;11226146;26;3132;-64
2024/04/11 13:41:48;;;;;;;;;;;;;;;20.58;38.40;97137.03;11220071;26;3088;-64
2024/04/11 13:46:50;;;;;;;;;;;;;;;20.58;38.67;97128.31;11229943;26;3007;-64
2024/04/11 13:51:54;;;;;;;;;;;;;;;20.59;38.28;97137.81;11236131;26;3210;-64
2024/04/11 13:57:09;;;;;;;;;;;;;;;20.57;38.45;97132.78;11238136;26;2938;-64
2024/04/11 14:02:30;;;;;;;;;;;;;;;20.57;38.54;97129.34;11236448;26;2986;-63
2024/04/11 14:07:29;;;;;;;;;;;;;;;20.57;38.65;97127.53;11233460;26;3093;-63
2024/04/11 14:12:30;;;;;;;;;;;;;;;20.57;38.74;97114.34;11236088;26;3381;-63
2024/04/11 14:17:31;;;;;;;;;;;;;;;20.59;38.68;97124.63;11229764;26;2929;-63
2024/04/11 14:22:36;;;;;;;;;;;;;;;20.58;38.54;97125.69;11227852;26;3182;-63
2024/04/11 14:27:38;;;;;;;;;;;;;;;20.59;38.33;97120.19;11208709;26;2729;-63
2024/04/11 14:38:06;;;;;;;;;;;;;;;20.58;38.57;97110.69;11234602;26;3279;-63
2024/04/11 14:43:10;;;;;;;;;;;;;;;20.57;39.03;97109.09;11226463;26;3097;-63
2024/04/11 14:48:33;;;;;;;;;;;;;;;20.58;39.04;97110.69;11230870;26;3127;-63
2024/04/11 14:53:34;;;;;;;;;;;;;;;20.57;38.67;97109.09;11214383;26;3097;-63
2024/04/11 14:58:37;;;;;;;;;;;;;;;20.57;38.65;97103.81;11215371;26;2937;-63
2024/04/11 15:03:41;;;;;;;;;;;;;;;20.57;38.53;97100.38;11243445;26;3070;-63
2024/04/11 15:08:41;;;;;;;;;;;;;;;20.58;39.31;97099.34;11238523;26;3526;-62
2024/04/11 15:13:44;;;;;;;;;;;;;;;20.57;39.06;97098.53;11228063;26;3088;-63
2024/04/11 15:18:44;;;;;;;;;;;;;;;20.57;39.37;97090.63;11237550;26;3017;-62
2024/04/11 15:23:45;;;;;;;;;;;;;;;20.58;39.16;97091.44;11246181;26;3104;-63
2024/04/11 15:28:47;;;;;;;;;;;;;;;20.59;39.77;97096.47;11225918;26;3025;-63
2024/04/11 15:33:56;;;;;;;;;;;;;;;20.59;39.83;97099.09;11226618;26;2917;-62
2024/04/11 15:39:00;;;;;;;;;;;;;;;20.59;40.20;97096.47;11237565;26;3078;-63
2024/04/11 15:44:05;;;;;;;;;;;;;;;20.60;39.90;97097.28;11232398;26;3209;-63
2024/04/11 15:49:08;;;;;;;;;;;;;;;20.61;39.98;97098.88;11229282;26;3120;-63
2024/04/11 15:54:30;;;;;;;;;;;;;;;20.60;40.32;97098.06;11228661;26;3210;-63
2024/04/11 15:59:33;;;;;;;;;;;;;;;20.60;40.10;97103.34;11226428;26;2985;-64
2024/04/11 16:04:40;;;;;;;;;;;;;;;20.60;40.38;97102.53;11203030;26;3116;-62
2024/04/11 16:09:46;;;;;;;;;;;;;;;20.58;40.45;97108.06;11228409;26;3104;-63
2024/04/11 16:14:47;;;;;;;;;;;;;;;20.59;40.42;97107.00;11226572;26;2929;-62
2024/04/11 16:19:51;;;;;;;;;;;;;;;20.60;40.96;97102.53;11226799;26;2917;-63
2024/04/11 16:24:52;;;;;;;;;;;;;;;20.60;40.82;97098.06;11200619;26;3096;-62
2024/04/11 16:29:55;;;;;;;;;;;;;;;20.59;40.48;97099.09;11224372;26;3154;-63
2024/04/11 16:34:58;;;;;;;;;;;;;;;20.60;41.08;97098.06;11232743;26;3178;-63
2024/04/11 16:40:03;;;;;;;;;;;;;;;20.61;40.97;97101.50;11196043;26;3066;-62
2024/04/11 16:50:04;;;;;;;;;;;;;;;20.60;41.10;97100.72;11228312;26;3088;-62
2024/04/11 16:55:23;;;;;;;;;;;;;;;20.60;41.12;97092.81;11231909;26;3045;-62
2024/04/11 17:00:26;;;;;;;;;;;;;;;20.60;40.90;97099.91;11233492;26;3158;-62
2024/04/11 17:05:30;;;;;;;;;;;;;;;20.59;41.21;97091.19;11222434;26;2962;-62
2024/04/11 17:10:35;;;;;;;;;;;;;;;20.60;41.59;97108.63;11227680;26;3219;-63
2024/04/11 17:15:43;;;;;;;;;;;;;;;20.59;41.71;97101.72;11225678;26;3087;-63
2024/04/11 17:20:49;;;;;;;;;;;;;;;20.59;41.77;97101.72;11229090;26;2982;-63
2024/04/11 17:25:51;;;;;;;;;;;;;;;20.61;41.62;97106.78;11225094;26;2937;-66
2024/04/11 17:35:59;;;;;;;;;;;;;;;20.38;38.86;97114.84;11228008;26;3106;-66
2024/04/11 17:41:08;;;;;;;;;;;;;;;20.28;38.34;97112.81;11220591;26;3108;-66
2024/04/11 17:46:08;;;;;;;;;;;;;;;20.17;38.59;97114.47;11227901;26;3097;-66
2024/04/11 17:51:15;;;;;;;;;;;;;;;20.08;38.64;97115.09;11223079;26;2909;-66
2024/04/11 17:56:22;;;;;;;;;;;;;;;20.00;38.65;97112.84;11226404;26;3112;-66
2024/04/11 18:01:23;;;;;;;;;;;;;;;20.00;38.02;97118.13;11229662;26;3202;-64
2024/04/11 18:06:27;;;;;;;;;;;;;;;20.09;40.23;97127.25;11236907;26;3198;-64
2024/04/11 18:11:27;;;;;;;;;;;;;;;20.16;40.21;97133.13;11227096;26;3043;-64
2024/04/11 18:16:27;;;;;;;;;;;;;;;20.20;39.50;97129.81;11220725;26;3096;-63
2024/04/11 18:21:29;;;;;;;;;;;;;;;20.23;39.92;97134.63;11197617;26;3192;-66
2024/04/11 18:26:30;;;;;;;;;;;;;;;20.26;40.38;97144.66;11233422;26;3214;-67
2024/04/11 18:31:32;;;;;;;;;;;;;;;20.31;40.94;97146.59;11205505;26;3100;-67
2024/04/11 18:36:37;;;;;;;;;;;;;;;20.33;40.57;97148.97;11232787;26;2838;-67
2024/04/11 18:41:48;;;;;;;;;;;;;;;20.34;41.16;97154.00;11202999;26;3167;-67
2024/04/11 18:46:55;;;;;;;;;;;;;;;20.37;41.48;97155.38;11229757;26;3105;-68
2024/04/11 18:52:12;;;;;;;;;;;;;;;20.38;41.47;97159.63;11229674;26;3017;-68
2024/04/11 18:57:12;;;;;;;;;;;;;;;20.39;41.25;97164.63;11213499;26;3080;-67
2024/04/11 19:02:13;;;;;;;;;;;;;;;20.40;41.30;97166.25;11232459;26;3228;-68
2024/04/11 19:07:20;;;;;;;;;;;;;;;20.40;41.44;97166.25;11235789;26;3191;-68
2024/04/11 19:12:23;;;;;;;;;;;;;;;20.41;41.97;97167.84;11229195;26;3123;-67
2024/04/11 19:17:25;;;;;;;;;;;;;;;20.42;41.79;97169.44;11201409;26;3034;-67
2024/04/11 19:22:26;;;;;;;;;;;;;;;20.42;41.79;97168.63;11234069;26;3101;-68
2024/04/11 19:27:28;;;;;;;;;;;;;;;20.42;42.07;97166.81;11222465;26;3205;-67
2024/04/11 19:32:28;;;;;;;;;;;;;;;20.43;41.98;97181.56;11207217;26;3150;-68
2024/04/11 19:37:33;;;;;;;;;;;;;;;20.43;42.02;97171.03;11232337;26;2998;-69
2024/04/11 19:42:34;;;;;;;;;;;;;;;20.42;42.47;97174.72;11194004;26;3119;-63
2024/04/11 19:47:35;;;;;;;;;;;;;;;20.43;42.49;97184.19;11224939;26;2949;-62
2024/04/11 19:52:35;;;;;;;;;;;;;;;20.44;42.56;97180.53;11229311;26;3186;-67
2024/04/11 19:57:47;;;;;;;;;;;;;;;20.45;42.13;97182.13;11226913;26;3204;-66
2024/04/11 20:02:57;;;;;;;;;;;;;;;20.44;42.52;97191.06;11205054;26;3030;-67
2024/04/11 20:07:57;;;;;;;;;;;;;;;20.43;41.99;97181.56;11230326;26;3033;-66
2024/04/11 20:13:06;;;;;;;;;;;;;;;20.42;42.46;97182.63;11240125;26;2860;-67
2024/04/11 20:18:07;;;;;;;;;;;;;;;20.42;42.04;97187.88;11231554;26;2991;-66
2024/04/11 20:23:09;;;;;;;;;;;;;;;20.42;42.47;97190.50;11237055;26;3208;-66
2024/04/11 20:28:16;;;;;;;;;;;;;;;20.41;42.31;97199.44;11228544;26;3027;-67
2024/04/11 20:33:20;;;;;;;;;;;;;;;20.41;41.88;97191.53;11232919;26;3136;-67
2024/04/11 20:38:21;;;;;;;;;;;;;;;20.41;41.68;97191.53;11227941;26;3153;-67
2024/04/11 20:43:37;;;;;;;;;;;;;;;20.40;42.01;97191.78;11231428;26;3189;-67
2024/04/11 20:48:53;;;;;;;;;;;;;;;20.40;42.04;97192.59;11233042;26;2948;-67
2024/04/11 21:36:32;;;;;;;;;;;;;;;20.35;41.83;97184.59;11224219;26;3121;-66
2024/04/11 21:41:36;;;;;;;;;;;;;;;20.35;41.91;97179.31;11228697;26;3221;-66
2024/04/11 21:46:39;;;;;;;;;;;;;;;20.34;42.01;97182.97;11234050;26;2986;-66
2024/04/11 21:51:41;;;;;;;;;;;;;;;20.34;42.11;97182.97;11235475;26;3173;-66
2024/04/11 21:56:41;;;;;;;;;;;;;;;20.34;42.00;97182.97;11234371;26;3109;-66
2024/04/11 22:01:47;;;;;;;;;;;;;;;20.34;41.74;97182.19;11234900;26;3029;-66
2024/04/11 22:06:55;;;;;;;;;;;;;;;20.33;41.88;97191.94;11214856;26;3076;-67
2024/04/11 22:11:58;;;;;;;;;;;;;;;20.33;42.00;97191.94;11238648;26;3129;-67
2024/04/11 22:17:00;;;;;;;;;;;;;;;20.31;41.64;97188.72;11238934;26;3139;-68
2024/04/11 22:22:11;;;;;;;;;;;;;;;20.31;42.28;97187.94;11212301;26;3048;-66
2024/04/11 22:27:15;;;;;;;;;;;;;;;20.31;41.95;97177.41;11209540;26;3125;-66
2024/04/11 22:32:16;;;;;;;;;;;;;;;20.31;42.07;97190.56;11208345;26;3175;-66
2024/04/11 22:37:22;;;;;;;;;;;;;;;20.31;42.09;97178.19;11238789;26;2970;-67
2024/04/11 22:42:24;;;;;;;;;;;;;;;20.31;41.85;97183.47;11236098;26;2953;-67
2024/04/11 22:47:34;;;;;;;;;;;;;;;20.31;42.23;97187.94;11276313;26;3128;-67
2024/04/11 22:52:34;;;;;;;;;;;;;;;20.28;41.89;97195.25;11242367;26;3140;-67
2024/04/11 22:57:38;;;;;;;;;;;;;;;20.29;41.95;97196.06;11206298;26;3113;-67
2024/04/11 23:02:38;;;;;;;;;;;;;;;20.28;41.88;97200.53;11236890;26;3211;-67
2024/04/11 23:12:39;;;;;;;;;;;;;;;20.28;41.78;97194.47;11236802;26;3024;-67
2024/04/11 23:17:57;;;;;;;;;;;;;;;20.27;41.80;97198.13;11235593;26;3122;-67
2024/04/11 23:23:15;;;;;;;;;;;;;;;20.27;42.16;97195.50;11235329;26;3223;-67
2024/04/11 23:28:22;;;;;;;;;;;;;;;20.26;41.76;97184.16;11267910;26;3184;-67
2024/04/11 23:33:23;;;;;;;;;;;;;;;20.26;41.89;97167.56;11239025;26;3095;-67
2024/04/11 23:38:27;;;;;;;;;;;;;;;20.25;41.67;97171.25;11238332;26;3089;-67
2024/04/11 23:43:27;;;;;;;;;;;;;;;20.25;41.85;97165.97;11228405;26;3159;-67
2024/04/11 23:48:38;;;;;;;;;;;;;;;20.24;41.69;97167.81;11240697;26;3223;-67
2024/04/11 23:53:39;;;;;;;;;;;;;;;20.23;41.75;97162.78;11239251;26;3042;-67
2024/04/11 23:58:42;;;;;;;;;;;;;;;20.24;41.77;97164.38;11236027;26;3192;-67
